sensor_id;sensor_type;location;lat;lon;timestamp;P1;durP1;ratioP1;P2;durP2;ratioP2
25231;SDS011;13176;51.140;6.290;2022-07-10T00:02:10;15.48;;;14.48;;
25231;SDS011;13176;51.140;6.290;2022-07-10T00:04:37;16.05;;;15.02;;
25231;SDS011;13176;51.140;6.290;2022-07-10T00:07:04;15.85;;;14.95;;
25231;SDS011;13176;51.140;6.290;2022-07-10T00:09:32;16.90;;;15.70;;
25231;SDS011;13176;51.140;6.290;2022-07-10T00:11:59;18.15;;;17.05;;
25231;SDS011;13176;51.140;6.290;2022-07-10T00:14:25;15.88;;;14.88;;
25231;SDS011;13176;51.140;6.290;2022-07-10T00:16:52;22.00;;;20.52;;
25231;SDS011;13176;51.140;6.290;2022-07-10T00:19:18;18.23;;;17.00;;
25231;SDS011;13176;51.140;6.290;2022-07-10T00:21:45;20.92;;;19.45;;
25231;SDS011;13176;51.140;6.290;2022-07-10T00:24:11;19.42;;;18.08;;
25231;SDS011;13176;51.140;6.290;2022-07-10T00:26:38;22.15;;;20.65;;
25231;SDS011;13176;51.140;6.290;2022-07-10T00:29:04;23.95;;;22.48;;
25231;SDS011;13176;51.140;6.290;2022-07-10T00:31:31;23.38;;;21.60;;
25231;SDS011;13176;51.140;6.290;2022-07-10T00:33:58;25.33;;;23.83;;
25231;SDS011;13176;51.140;6.290;2022-07-10T00:36:24;25.15;;;23.55;;
25231;SDS011;13176;51.140;6.290;2022-07-10T00:38:51;24.48;;;22.98;;
25231;SDS011;13176;51.140;6.290;2022-07-10T00:41:17;21.00;;;19.65;;
25231;SDS011;13176;51.140;6.290;2022-07-10T00:43:51;21.52;;;20.08;;
25231;SDS011;13176;51.140;6.290;2022-07-10T00:46:23;23.35;;;22.02;;
25231;SDS011;13176;51.140;6.290;2022-07-10T00:48:51;25.25;;;23.73;;
25231;SDS011;13176;51.140;6.290;2022-07-10T00:51:18;27.35;;;25.27;;
25231;SDS011;13176;51.140;6.290;2022-07-10T00:53:47;31.23;;;29.48;;
25231;SDS011;13176;51.140;6.290;2022-07-10T00:56:18;30.35;;;28.52;;
25231;SDS011;13176;51.140;6.290;2022-07-10T00:58:47;33.60;;;31.58;;
25231;SDS011;13176;51.140;6.290;2022-07-10T01:01:15;32.08;;;30.23;;
25231;SDS011;13176;51.140;6.290;2022-07-10T01:03:43;36.45;;;34.20;;
25231;SDS011;13176;51.140;6.290;2022-07-10T01:06:13;37.88;;;35.58;;
25231;SDS011;13176;51.140;6.290;2022-07-10T01:08:40;39.78;;;37.35;;
25231;SDS011;13176;51.140;6.290;2022-07-10T01:11:07;42.30;;;39.85;;
25231;SDS011;13176;51.140;6.290;2022-07-10T01:13:38;38.05;;;35.72;;
25231;SDS011;13176;51.140;6.290;2022-07-10T01:16:05;38.97;;;36.72;;
25231;SDS011;13176;51.140;6.290;2022-07-10T01:18:31;33.45;;;31.25;;
25231;SDS011;13176;51.140;6.290;2022-07-10T01:20:58;29.67;;;27.67;;
25231;SDS011;13176;51.140;6.290;2022-07-10T01:23:25;29.42;;;27.67;;
25231;SDS011;13176;51.140;6.290;2022-07-10T01:25:52;28.23;;;26.52;;
25231;SDS011;13176;51.140;6.290;2022-07-10T01:28:19;31.60;;;29.63;;
25231;SDS011;13176;51.140;6.290;2022-07-10T01:30:47;30.70;;;28.88;;
25231;SDS011;13176;51.140;6.290;2022-07-10T01:33:14;31.70;;;30.00;;
25231;SDS011;13176;51.140;6.290;2022-07-10T01:35:41;33.25;;;31.13;;
25231;SDS011;13176;51.140;6.290;2022-07-10T01:38:08;34.08;;;32.10;;
25231;SDS011;13176;51.140;6.290;2022-07-10T01:40:34;32.17;;;30.15;;
25231;SDS011;13176;51.140;6.290;2022-07-10T01:43:01;31.95;;;30.00;;
25231;SDS011;13176;51.140;6.290;2022-07-10T01:45:27;31.27;;;29.30;;
25231;SDS011;13176;51.140;6.290;2022-07-10T01:47:54;32.55;;;30.63;;
25231;SDS011;13176;51.140;6.290;2022-07-10T01:50:21;31.95;;;29.98;;
25231;SDS011;13176;51.140;6.290;2022-07-10T01:52:47;31.48;;;29.25;;
25231;SDS011;13176;51.140;6.290;2022-07-10T01:55:14;30.80;;;28.95;;
25231;SDS011;13176;51.140;6.290;2022-07-10T01:57:40;32.50;;;30.67;;
25231;SDS011;13176;51.140;6.290;2022-07-10T02:00:07;29.60;;;27.65;;
25231;SDS011;13176;51.140;6.290;2022-07-10T02:02:35;34.70;;;32.45;;
25231;SDS011;13176;51.140;6.290;2022-07-10T02:05:02;33.53;;;31.65;;
25231;SDS011;13176;51.140;6.290;2022-07-10T02:07:28;34.28;;;32.38;;
25231;SDS011;13176;51.140;6.290;2022-07-10T02:09:55;39.35;;;37.13;;
25231;SDS011;13176;51.140;6.290;2022-07-10T02:12:21;34.85;;;32.70;;
25231;SDS011;13176;51.140;6.290;2022-07-10T02:14:47;36.17;;;33.90;;
25231;SDS011;13176;51.140;6.290;2022-07-10T02:17:14;33.25;;;31.40;;
25231;SDS011;13176;51.140;6.290;2022-07-10T02:19:42;33.25;;;31.38;;
25231;SDS011;13176;51.140;6.290;2022-07-10T02:22:08;33.20;;;31.30;;
25231;SDS011;13176;51.140;6.290;2022-07-10T02:24:35;35.03;;;32.75;;
25231;SDS011;13176;51.140;6.290;2022-07-10T02:27:02;35.45;;;33.22;;
25231;SDS011;13176;51.140;6.290;2022-07-10T02:29:28;37.15;;;35.00;;
25231;SDS011;13176;51.140;6.290;2022-07-10T02:31:55;42.72;;;40.30;;
25231;SDS011;13176;51.140;6.290;2022-07-10T02:34:21;37.70;;;35.20;;
25231;SDS011;13176;51.140;6.290;2022-07-10T02:36:48;35.45;;;33.35;;
25231;SDS011;13176;51.140;6.290;2022-07-10T02:39:14;35.15;;;32.67;;
25231;SDS011;13176;51.140;6.290;2022-07-10T02:41:41;36.33;;;34.25;;
25231;SDS011;13176;51.140;6.290;2022-07-10T02:44:07;32.28;;;30.23;;
25231;SDS011;13176;51.140;6.290;2022-07-10T02:46:34;31.63;;;29.80;;
25231;SDS011;13176;51.140;6.290;2022-07-10T02:49:00;30.67;;;28.98;;
25231;SDS011;13176;51.140;6.290;2022-07-10T02:51:27;31.50;;;29.50;;
25231;SDS011;13176;51.140;6.290;2022-07-10T02:53:53;29.02;;;27.38;;
25231;SDS011;13176;51.140;6.290;2022-07-10T02:56:20;30.27;;;28.48;;
25231;SDS011;13176;51.140;6.290;2022-07-10T02:58:46;30.33;;;28.38;;
25231;SDS011;13176;51.140;6.290;2022-07-10T03:01:13;29.95;;;28.05;;
25231;SDS011;13176;51.140;6.290;2022-07-10T03:03:39;25.48;;;23.98;;
25231;SDS011;13176;51.140;6.290;2022-07-10T03:06:06;26.80;;;25.23;;
25231;SDS011;13176;51.140;6.290;2022-07-10T03:08:32;25.02;;;23.45;;
25231;SDS011;13176;51.140;6.290;2022-07-10T03:10:59;26.02;;;24.63;;
25231;SDS011;13176;51.140;6.290;2022-07-10T03:13:25;28.83;;;26.90;;
25231;SDS011;13176;51.140;6.290;2022-07-10T03:15:55;29.40;;;27.58;;
25231;SDS011;13176;51.140;6.290;2022-07-10T03:18:22;33.10;;;30.92;;
25231;SDS011;13176;51.140;6.290;2022-07-10T03:20:48;33.25;;;31.27;;
25231;SDS011;13176;51.140;6.290;2022-07-10T03:23:15;30.55;;;28.80;;
25231;SDS011;13176;51.140;6.290;2022-07-10T03:25:42;26.88;;;25.15;;
25231;SDS011;13176;51.140;6.290;2022-07-10T03:28:08;23.60;;;22.08;;
25231;SDS011;13176;51.140;6.290;2022-07-10T03:30:35;22.27;;;21.00;;
25231;SDS011;13176;51.140;6.290;2022-07-10T03:33:01;22.40;;;20.88;;
25231;SDS011;13176;51.140;6.290;2022-07-10T03:35:29;21.30;;;19.92;;
25231;SDS011;13176;51.140;6.290;2022-07-10T03:37:59;22.92;;;21.50;;
25231;SDS011;13176;51.140;6.290;2022-07-10T03:40:25;20.88;;;19.38;;
25231;SDS011;13176;51.140;6.290;2022-07-10T03:42:53;23.42;;;21.55;;
25231;SDS011;13176;51.140;6.290;2022-07-10T03:45:20;21.88;;;20.33;;
25231;SDS011;13176;51.140;6.290;2022-07-10T03:47:46;22.95;;;21.33;;
25231;SDS011;13176;51.140;6.290;2022-07-10T03:50:13;24.08;;;22.48;;
25231;SDS011;13176;51.140;6.290;2022-07-10T03:52:39;25.50;;;24.00;;
25231;SDS011;13176;51.140;6.290;2022-07-10T03:55:06;24.52;;;23.00;;
25231;SDS011;13176;51.140;6.290;2022-07-10T03:57:32;28.27;;;26.50;;
25231;SDS011;13176;51.140;6.290;2022-07-10T04:00:17;25.80;;;24.13;;
25231;SDS011;13176;51.140;6.290;2022-07-10T04:02:48;25.98;;;24.05;;
25231;SDS011;13176;51.140;6.290;2022-07-10T04:05:20;28.67;;;26.58;;
25231;SDS011;13176;51.140;6.290;2022-07-10T04:07:47;27.23;;;25.63;;
25231;SDS011;13176;51.140;6.290;2022-07-10T04:10:14;29.17;;;27.05;;
25231;SDS011;13176;51.140;6.290;2022-07-10T04:12:42;28.38;;;26.45;;
25231;SDS011;13176;51.140;6.290;2022-07-10T04:15:08;28.95;;;27.00;;
25231;SDS011;13176;51.140;6.290;2022-07-10T04:17:35;27.38;;;25.48;;
25231;SDS011;13176;51.140;6.290;2022-07-10T04:20:02;27.90;;;26.23;;
25231;SDS011;13176;51.140;6.290;2022-07-10T04:22:29;28.42;;;26.73;;
25231;SDS011;13176;51.140;6.290;2022-07-10T04:24:55;28.40;;;26.50;;
25231;SDS011;13176;51.140;6.290;2022-07-10T04:27:22;27.58;;;25.77;;
25231;SDS011;13176;51.140;6.290;2022-07-10T04:29:49;29.48;;;27.80;;
25231;SDS011;13176;51.140;6.290;2022-07-10T04:32:16;31.67;;;29.50;;
25231;SDS011;13176;51.140;6.290;2022-07-10T04:34:42;31.48;;;29.27;;
25231;SDS011;13176;51.140;6.290;2022-07-10T04:37:09;33.38;;;31.48;;
25231;SDS011;13176;51.140;6.290;2022-07-10T04:39:36;31.70;;;29.83;;
25231;SDS011;13176;51.140;6.290;2022-07-10T04:42:04;33.60;;;31.40;;
25231;SDS011;13176;51.140;6.290;2022-07-10T04:44:31;37.05;;;34.67;;
25231;SDS011;13176;51.140;6.290;2022-07-10T04:46:58;34.10;;;32.20;;
25231;SDS011;13176;51.140;6.290;2022-07-10T04:49:25;38.22;;;36.08;;
25231;SDS011;13176;51.140;6.290;2022-07-10T04:51:52;36.25;;;34.13;;
25231;SDS011;13176;51.140;6.290;2022-07-10T04:54:18;35.97;;;33.75;;
25231;SDS011;13176;51.140;6.290;2022-07-10T04:56:45;36.00;;;34.05;;
25231;SDS011;13176;51.140;6.290;2022-07-10T04:59:11;38.35;;;35.80;;
25231;SDS011;13176;51.140;6.290;2022-07-10T05:01:38;37.83;;;35.50;;
25231;SDS011;13176;51.140;6.290;2022-07-10T05:04:04;37.83;;;35.40;;
25231;SDS011;13176;51.140;6.290;2022-07-10T05:06:31;41.10;;;38.83;;
25231;SDS011;13176;51.140;6.290;2022-07-10T05:08:58;39.67;;;37.40;;
25231;SDS011;13176;51.140;6.290;2022-07-10T05:11:25;34.72;;;32.75;;
25231;SDS011;13176;51.140;6.290;2022-07-10T05:13:52;35.17;;;33.13;;
25231;SDS011;13176;51.140;6.290;2022-07-10T05:16:18;35.03;;;32.45;;
25231;SDS011;13176;51.140;6.290;2022-07-10T05:18:46;34.28;;;32.28;;
25231;SDS011;13176;51.140;6.290;2022-07-10T05:21:12;34.75;;;32.50;;
25231;SDS011;13176;51.140;6.290;2022-07-10T05:23:39;36.55;;;34.35;;
25231;SDS011;13176;51.140;6.290;2022-07-10T05:26:06;37.63;;;34.97;;
25231;SDS011;13176;51.140;6.290;2022-07-10T05:28:32;35.95;;;33.85;;
25231;SDS011;13176;51.140;6.290;2022-07-10T05:30:59;33.83;;;31.70;;
25231;SDS011;13176;51.140;6.290;2022-07-10T05:33:25;35.33;;;32.90;;
25231;SDS011;13176;51.140;6.290;2022-07-10T05:35:55;35.88;;;33.72;;
25231;SDS011;13176;51.140;6.290;2022-07-10T05:38:22;37.85;;;35.33;;
25231;SDS011;13176;51.140;6.290;2022-07-10T05:40:48;39.80;;;37.17;;
25231;SDS011;13176;51.140;6.290;2022-07-10T05:43:15;38.50;;;36.00;;
25231;SDS011;13176;51.140;6.290;2022-07-10T05:45:41;36.58;;;34.30;;
25231;SDS011;13176;51.140;6.290;2022-07-10T05:48:15;36.13;;;33.92;;
25231;SDS011;13176;51.140;6.290;2022-07-10T05:50:41;36.47;;;34.40;;
25231;SDS011;13176;51.140;6.290;2022-07-10T05:53:08;40.97;;;38.20;;
25231;SDS011;13176;51.140;6.290;2022-07-10T05:55:34;42.00;;;39.50;;
25231;SDS011;13176;51.140;6.290;2022-07-10T05:58:00;39.38;;;36.83;;
25231;SDS011;13176;51.140;6.290;2022-07-10T06:00:27;40.28;;;37.67;;
25231;SDS011;13176;51.140;6.290;2022-07-10T06:02:53;44.17;;;41.53;;
25231;SDS011;13176;51.140;6.290;2022-07-10T06:05:20;43.17;;;40.40;;
25231;SDS011;13176;51.140;6.290;2022-07-10T06:07:46;44.05;;;41.30;;
25231;SDS011;13176;51.140;6.290;2022-07-10T06:10:13;44.22;;;41.22;;
25231;SDS011;13176;51.140;6.290;2022-07-10T06:12:40;44.15;;;41.47;;
25231;SDS011;13176;51.140;6.290;2022-07-10T06:15:07;40.15;;;37.75;;
25231;SDS011;13176;51.140;6.290;2022-07-10T06:17:34;43.75;;;40.85;;
25231;SDS011;13176;51.140;6.290;2022-07-10T06:20:00;41.92;;;39.53;;
25231;SDS011;13176;51.140;6.290;2022-07-10T06:22:27;40.03;;;37.67;;
25231;SDS011;13176;51.140;6.290;2022-07-10T06:25:06;40.85;;;38.45;;
25231;SDS011;13176;51.140;6.290;2022-07-10T06:27:34;42.58;;;40.10;;
25231;SDS011;13176;51.140;6.290;2022-07-10T06:30:01;38.65;;;36.30;;
25231;SDS011;13176;51.140;6.290;2022-07-10T06:32:28;41.17;;;38.75;;
25231;SDS011;13176;51.140;6.290;2022-07-10T06:34:55;42.92;;;40.25;;
25231;SDS011;13176;51.140;6.290;2022-07-10T06:37:21;41.92;;;39.30;;
25231;SDS011;13176;51.140;6.290;2022-07-10T06:39:48;42.83;;;40.13;;
25231;SDS011;13176;51.140;6.290;2022-07-10T06:42:14;42.63;;;39.83;;
25231;SDS011;13176;51.140;6.290;2022-07-10T06:44:41;42.58;;;39.97;;
25231;SDS011;13176;51.140;6.290;2022-07-10T06:47:09;42.42;;;39.97;;
25231;SDS011;13176;51.140;6.290;2022-07-10T06:49:55;40.85;;;38.28;;
25231;SDS011;13176;51.140;6.290;2022-07-10T06:52:21;42.70;;;40.20;;
25231;SDS011;13176;51.140;6.290;2022-07-10T06:54:48;40.05;;;37.05;;
25231;SDS011;13176;51.140;6.290;2022-07-10T06:57:15;40.90;;;38.33;;
25231;SDS011;13176;51.140;6.290;2022-07-10T06:59:42;39.35;;;37.03;;
25231;SDS011;13176;51.140;6.290;2022-07-10T07:02:08;44.00;;;41.03;;
25231;SDS011;13176;51.140;6.290;2022-07-10T07:04:35;39.42;;;37.05;;
25231;SDS011;13176;51.140;6.290;2022-07-10T07:07:02;38.38;;;36.08;;
25231;SDS011;13176;51.140;6.290;2022-07-10T07:09:28;40.35;;;38.00;;
25231;SDS011;13176;51.140;6.290;2022-07-10T07:11:55;38.53;;;36.25;;
25231;SDS011;13176;51.140;6.290;2022-07-10T07:14:21;38.20;;;35.97;;
25231;SDS011;13176;51.140;6.290;2022-07-10T07:16:48;39.15;;;36.35;;
25231;SDS011;13176;51.140;6.290;2022-07-10T07:19:24;37.33;;;35.22;;
25231;SDS011;13176;51.140;6.290;2022-07-10T07:22:09;41.17;;;38.80;;
25231;SDS011;13176;51.140;6.290;2022-07-10T07:24:54;37.83;;;35.42;;
25231;SDS011;13176;51.140;6.290;2022-07-10T07:27:21;37.75;;;35.47;;
25231;SDS011;13176;51.140;6.290;2022-07-10T07:29:47;38.58;;;36.03;;
25231;SDS011;13176;51.140;6.290;2022-07-10T07:32:13;37.40;;;35.05;;
25231;SDS011;13176;51.140;6.290;2022-07-10T07:34:40;44.50;;;41.15;;
25231;SDS011;13176;51.140;6.290;2022-07-10T07:37:06;41.33;;;38.60;;
25231;SDS011;13176;51.140;6.290;2022-07-10T07:39:33;43.97;;;41.20;;
25231;SDS011;13176;51.140;6.290;2022-07-10T07:41:59;41.70;;;39.17;;
25231;SDS011;13176;51.140;6.290;2022-07-10T07:44:26;41.85;;;39.15;;
25231;SDS011;13176;51.140;6.290;2022-07-10T07:46:55;44.10;;;41.05;;
25231;SDS011;13176;51.140;6.290;2022-07-10T07:49:22;46.03;;;42.83;;
25231;SDS011;13176;51.140;6.290;2022-07-10T07:51:48;43.10;;;40.25;;
25231;SDS011;13176;51.140;6.290;2022-07-10T07:54:14;45.20;;;42.35;;
25231;SDS011;13176;51.140;6.290;2022-07-10T07:56:41;43.65;;;40.80;;
25231;SDS011;13176;51.140;6.290;2022-07-10T07:59:08;40.10;;;37.47;;
25231;SDS011;13176;51.140;6.290;2022-07-10T08:01:34;39.10;;;36.63;;
25231;SDS011;13176;51.140;6.290;2022-07-10T08:04:00;41.45;;;38.67;;
25231;SDS011;13176;51.140;6.290;2022-07-10T08:06:36;41.40;;;38.78;;
25231;SDS011;13176;51.140;6.290;2022-07-10T08:09:03;47.30;;;44.35;;
25231;SDS011;13176;51.140;6.290;2022-07-10T08:11:29;45.22;;;42.30;;
25231;SDS011;13176;51.140;6.290;2022-07-10T08:13:56;46.58;;;43.72;;
25231;SDS011;13176;51.140;6.290;2022-07-10T08:16:22;51.78;;;48.65;;
25231;SDS011;13176;51.140;6.290;2022-07-10T08:18:49;44.63;;;41.83;;
25231;SDS011;13176;51.140;6.290;2022-07-10T08:21:16;40.72;;;38.17;;
25231;SDS011;13176;51.140;6.290;2022-07-10T08:23:43;33.15;;;31.13;;
25231;SDS011;13176;51.140;6.290;2022-07-10T08:26:09;30.90;;;28.60;;
25231;SDS011;13176;51.140;6.290;2022-07-10T08:28:36;28.73;;;27.02;;
25231;SDS011;13176;51.140;6.290;2022-07-10T08:31:03;27.40;;;25.70;;
25231;SDS011;13176;51.140;6.290;2022-07-10T08:33:30;24.67;;;23.10;;
25231;SDS011;13176;51.140;6.290;2022-07-10T08:35:56;27.20;;;25.38;;
25231;SDS011;13176;51.140;6.290;2022-07-10T08:38:46;23.70;;;22.00;;
25231;SDS011;13176;51.140;6.290;2022-07-10T08:41:12;26.23;;;24.38;;
25231;SDS011;13176;51.140;6.290;2022-07-10T08:43:40;27.80;;;25.58;;
25231;SDS011;13176;51.140;6.290;2022-07-10T08:46:07;25.80;;;23.63;;
25231;SDS011;13176;51.140;6.290;2022-07-10T08:48:38;25.85;;;23.95;;
25231;SDS011;13176;51.140;6.290;2022-07-10T08:51:07;26.92;;;25.20;;
25231;SDS011;13176;51.140;6.290;2022-07-10T08:53:41;25.73;;;24.10;;
25231;SDS011;13176;51.140;6.290;2022-07-10T08:56:07;27.27;;;25.27;;
25231;SDS011;13176;51.140;6.290;2022-07-10T08:58:34;28.10;;;26.30;;
25231;SDS011;13176;51.140;6.290;2022-07-10T09:01:02;27.90;;;25.85;;
25231;SDS011;13176;51.140;6.290;2022-07-10T09:03:29;29.15;;;27.05;;
25231;SDS011;13176;51.140;6.290;2022-07-10T09:05:57;26.63;;;24.77;;
25231;SDS011;13176;51.140;6.290;2022-07-10T09:08:28;26.25;;;24.58;;
25231;SDS011;13176;51.140;6.290;2022-07-10T09:13:50;25.40;;;23.80;;
25231;SDS011;13176;51.140;6.290;2022-07-10T09:16:28;25.33;;;23.42;;
25231;SDS011;13176;51.140;6.290;2022-07-10T09:18:56;27.65;;;25.70;;
25231;SDS011;13176;51.140;6.290;2022-07-10T09:21:23;34.97;;;32.50;;
25231;SDS011;13176;51.140;6.290;2022-07-10T09:23:55;38.42;;;35.92;;
25231;SDS011;13176;51.140;6.290;2022-07-10T09:26:25;40.22;;;37.15;;
25231;SDS011;13176;51.140;6.290;2022-07-10T09:29:04;41.85;;;39.28;;
25231;SDS011;13176;51.140;6.290;2022-07-10T09:34:36;33.88;;;31.55;;
25231;SDS011;13176;51.140;6.290;2022-07-10T09:39:54;37.78;;;35.50;;
25231;SDS011;13176;51.140;6.290;2022-07-10T09:42:24;37.97;;;35.60;;
25231;SDS011;13176;51.140;6.290;2022-07-10T09:47:37;41.30;;;38.60;;
25231;SDS011;13176;51.140;6.290;2022-07-10T09:50:04;43.53;;;41.00;;
25231;SDS011;13176;51.140;6.290;2022-07-10T09:52:45;52.13;;;48.25;;
25231;SDS011;13176;51.140;6.290;2022-07-10T09:55:13;48.78;;;45.53;;
25231;SDS011;13176;51.140;6.290;2022-07-10T09:57:42;40.15;;;37.83;;
25231;SDS011;13176;51.140;6.290;2022-07-10T10:00:10;41.55;;;38.80;;
25231;SDS011;13176;51.140;6.290;2022-07-10T10:02:37;45.92;;;43.03;;
25231;SDS011;13176;51.140;6.290;2022-07-10T10:05:05;45.85;;;42.72;;
25231;SDS011;13176;51.140;6.290;2022-07-10T10:07:33;46.78;;;44.13;;
25231;SDS011;13176;51.140;6.290;2022-07-10T10:10:03;45.92;;;43.10;;
25231;SDS011;13176;51.140;6.290;2022-07-10T10:12:39;48.80;;;45.83;;
25231;SDS011;13176;51.140;6.290;2022-07-10T10:15:11;48.72;;;45.78;;
25231;SDS011;13176;51.140;6.290;2022-07-10T10:17:38;47.97;;;44.92;;
25231;SDS011;13176;51.140;6.290;2022-07-10T10:20:06;48.55;;;45.50;;
25231;SDS011;13176;51.140;6.290;2022-07-10T10:22:52;52.42;;;49.08;;
25231;SDS011;13176;51.140;6.290;2022-07-10T10:25:22;52.10;;;48.65;;
25231;SDS011;13176;51.140;6.290;2022-07-10T10:27:50;42.00;;;39.33;;
25231;SDS011;13176;51.140;6.290;2022-07-10T10:30:17;45.22;;;42.25;;
25231;SDS011;13176;51.140;6.290;2022-07-10T10:32:44;47.75;;;44.63;;
25231;SDS011;13176;51.140;6.290;2022-07-10T10:35:10;48.05;;;45.05;;
25231;SDS011;13176;51.140;6.290;2022-07-10T10:37:41;47.88;;;44.97;;
25231;SDS011;13176;51.140;6.290;2022-07-10T10:40:10;48.22;;;45.22;;
25231;SDS011;13176;51.140;6.290;2022-07-10T10:42:55;46.38;;;43.42;;
25231;SDS011;13176;51.140;6.290;2022-07-10T10:45:25;39.85;;;37.25;;
25231;SDS011;13176;51.140;6.290;2022-07-10T10:48:05;49.60;;;46.30;;
25231;SDS011;13176;51.140;6.290;2022-07-10T10:50:54;47.97;;;45.13;;
25231;SDS011;13176;51.140;6.290;2022-07-10T10:53:23;49.40;;;46.42;;
25231;SDS011;13176;51.140;6.290;2022-07-10T10:58:39;38.45;;;36.15;;
25231;SDS011;13176;51.140;6.290;2022-07-10T11:06:43;38.67;;;36.28;;
25231;SDS011;13176;51.140;6.290;2022-07-10T11:12:07;39.70;;;37.35;;
25231;SDS011;13176;51.140;6.290;2022-07-10T11:14:38;31.92;;;30.13;;
25231;SDS011;13176;51.140;6.290;2022-07-10T11:17:06;32.65;;;30.38;;
25231;SDS011;13176;51.140;6.290;2022-07-10T11:19:34;31.10;;;28.95;;
25231;SDS011;13176;51.140;6.290;2022-07-10T11:30:21;23.35;;;21.85;;
25231;SDS011;13176;51.140;6.290;2022-07-10T11:32:47;20.85;;;19.23;;
25231;SDS011;13176;51.140;6.290;2022-07-10T11:35:15;18.40;;;17.30;;
25231;SDS011;13176;51.140;6.290;2022-07-10T11:37:51;20.30;;;19.02;;
25231;SDS011;13176;51.140;6.290;2022-07-10T11:40:19;18.60;;;17.27;;
25231;SDS011;13176;51.140;6.290;2022-07-10T11:42:54;23.08;;;21.83;;
25231;SDS011;13176;51.140;6.290;2022-07-10T11:45:25;22.23;;;20.83;;
25231;SDS011;13176;51.140;6.290;2022-07-10T11:47:56;22.80;;;21.20;;
25231;SDS011;13176;51.140;6.290;2022-07-10T11:50:23;16.73;;;15.73;;
25231;SDS011;13176;51.140;6.290;2022-07-10T11:52:50;20.25;;;18.95;;
25231;SDS011;13176;51.140;6.290;2022-07-10T11:55:17;20.40;;;18.88;;
25231;SDS011;13176;51.140;6.290;2022-07-10T11:57:45;20.83;;;19.52;;
25231;SDS011;13176;51.140;6.290;2022-07-10T12:00:22;22.20;;;20.23;;
25231;SDS011;13176;51.140;6.290;2022-07-10T12:02:52;20.60;;;19.27;;
25231;SDS011;13176;51.140;6.290;2022-07-10T12:05:30;20.77;;;19.25;;
25231;SDS011;13176;51.140;6.290;2022-07-10T12:08:00;22.92;;;21.50;;
25231;SDS011;13176;51.140;6.290;2022-07-10T12:10:31;22.17;;;20.88;;
25231;SDS011;13176;51.140;6.290;2022-07-10T12:15:44;24.08;;;22.58;;
25231;SDS011;13176;51.140;6.290;2022-07-10T12:18:16;24.00;;;22.40;;
25231;SDS011;13176;51.140;6.290;2022-07-10T12:20:44;22.95;;;21.63;;
25231;SDS011;13176;51.140;6.290;2022-07-10T12:23:17;23.70;;;22.23;;
25231;SDS011;13176;51.140;6.290;2022-07-10T12:25:45;24.15;;;22.50;;
25231;SDS011;13176;51.140;6.290;2022-07-10T12:28:16;24.67;;;22.98;;
25231;SDS011;13176;51.140;6.290;2022-07-10T12:30:45;23.58;;;21.73;;
25231;SDS011;13176;51.140;6.290;2022-07-10T12:33:14;22.02;;;20.75;;
25231;SDS011;13176;51.140;6.290;2022-07-10T12:35:51;20.27;;;19.05;;
25231;SDS011;13176;51.140;6.290;2022-07-10T12:38:23;19.35;;;17.63;;
25231;SDS011;13176;51.140;6.290;2022-07-10T12:41:12;17.55;;;16.48;;
25231;SDS011;13176;51.140;6.290;2022-07-10T12:43:40;16.80;;;15.65;;
25231;SDS011;13176;51.140;6.290;2022-07-10T12:46:15;15.90;;;14.85;;
25231;SDS011;13176;51.140;6.290;2022-07-10T12:49:00;16.08;;;15.07;;
25231;SDS011;13176;51.140;6.290;2022-07-10T12:51:30;17.60;;;16.50;;
25231;SDS011;13176;51.140;6.290;2022-07-10T12:54:33;17.73;;;16.60;;
25231;SDS011;13176;51.140;6.290;2022-07-10T12:57:02;20.20;;;18.80;;
25231;SDS011;13176;51.140;6.290;2022-07-10T12:59:34;19.88;;;18.52;;
25231;SDS011;13176;51.140;6.290;2022-07-10T13:02:18;22.23;;;20.70;;
25231;SDS011;13176;51.140;6.290;2022-07-10T13:04:56;21.33;;;19.98;;
25231;SDS011;13176;51.140;6.290;2022-07-10T13:07:36;20.02;;;18.67;;
25231;SDS011;13176;51.140;6.290;2022-07-10T13:10:06;20.70;;;19.20;;
25231;SDS011;13176;51.140;6.290;2022-07-10T13:12:33;17.25;;;15.95;;
25231;SDS011;13176;51.140;6.290;2022-07-10T13:15:01;17.83;;;16.83;;
25231;SDS011;13176;51.140;6.290;2022-07-10T13:17:29;16.98;;;15.73;;
25231;SDS011;13176;51.140;6.290;2022-07-10T13:19:55;17.33;;;16.33;;
25231;SDS011;13176;51.140;6.290;2022-07-10T13:22:22;17.85;;;16.65;;
25231;SDS011;13176;51.140;6.290;2022-07-10T13:24:49;18.20;;;17.20;;
25231;SDS011;13176;51.140;6.290;2022-07-10T13:27:15;17.05;;;15.85;;
25231;SDS011;13176;51.140;6.290;2022-07-10T13:29:42;16.13;;;14.88;;
25231;SDS011;13176;51.140;6.290;2022-07-10T13:32:08;17.05;;;15.95;;
25231;SDS011;13176;51.140;6.290;2022-07-10T13:34:35;17.10;;;16.05;;
25231;SDS011;13176;51.140;6.290;2022-07-10T13:37:02;16.98;;;15.93;;
25231;SDS011;13176;51.140;6.290;2022-07-10T13:39:29;16.75;;;15.77;;
25231;SDS011;13176;51.140;6.290;2022-07-10T13:41:56;16.48;;;15.48;;
25231;SDS011;13176;51.140;6.290;2022-07-10T13:44:22;18.02;;;16.67;;
25231;SDS011;13176;51.140;6.290;2022-07-10T13:46:49;16.23;;;15.13;;
25231;SDS011;13176;51.140;6.290;2022-07-10T13:49:15;16.88;;;15.68;;
25231;SDS011;13176;51.140;6.290;2022-07-10T13:51:42;18.20;;;16.77;;
25231;SDS011;13176;51.140;6.290;2022-07-10T13:54:08;17.42;;;16.10;;
25231;SDS011;13176;51.140;6.290;2022-07-10T13:56:35;15.77;;;14.98;;
25231;SDS011;13176;51.140;6.290;2022-07-10T13:59:02;17.52;;;16.48;;
25231;SDS011;13176;51.140;6.290;2022-07-10T14:01:28;18.83;;;17.63;;
25231;SDS011;13176;51.140;6.290;2022-07-10T14:03:55;18.98;;;17.83;;
25231;SDS011;13176;51.140;6.290;2022-07-10T14:06:26;16.58;;;15.45;;
25231;SDS011;13176;51.140;6.290;2022-07-10T14:08:52;18.48;;;16.95;;
25231;SDS011;13176;51.140;6.290;2022-07-10T14:11:19;21.02;;;19.83;;
25231;SDS011;13176;51.140;6.290;2022-07-10T14:13:46;18.85;;;17.65;;
25231;SDS011;13176;51.140;6.290;2022-07-10T14:16:12;20.38;;;19.17;;
25231;SDS011;13176;51.140;6.290;2022-07-10T14:18:39;19.33;;;18.17;;
25231;SDS011;13176;51.140;6.290;2022-07-10T14:21:08;16.77;;;15.77;;
25231;SDS011;13176;51.140;6.290;2022-07-10T14:23:37;16.08;;;14.98;;
25231;SDS011;13176;51.140;6.290;2022-07-10T14:26:05;19.27;;;18.27;;
25231;SDS011;13176;51.140;6.290;2022-07-10T14:28:32;17.63;;;16.52;;
25231;SDS011;13176;51.140;6.290;2022-07-10T14:31:04;18.40;;;17.33;;
25231;SDS011;13176;51.140;6.290;2022-07-10T14:33:32;19.35;;;18.17;;
25231;SDS011;13176;51.140;6.290;2022-07-10T14:36:00;20.67;;;19.55;;
25231;SDS011;13176;51.140;6.290;2022-07-10T14:38:27;18.27;;;16.88;;
25231;SDS011;13176;51.140;6.290;2022-07-10T14:40:54;18.88;;;17.63;;
25231;SDS011;13176;51.140;6.290;2022-07-10T14:43:21;18.40;;;17.13;;
25231;SDS011;13176;51.140;6.290;2022-07-10T14:45:49;19.40;;;18.30;;
25231;SDS011;13176;51.140;6.290;2022-07-10T14:48:27;18.45;;;17.35;;
25231;SDS011;13176;51.140;6.290;2022-07-10T14:50:53;18.17;;;17.25;;
25231;SDS011;13176;51.140;6.290;2022-07-10T14:53:20;18.48;;;17.48;;
25231;SDS011;13176;51.140;6.290;2022-07-10T14:55:47;17.92;;;16.98;;
25231;SDS011;13176;51.140;6.290;2022-07-10T14:58:14;17.63;;;16.52;;
25231;SDS011;13176;51.140;6.290;2022-07-10T15:00:41;17.90;;;16.80;;
25231;SDS011;13176;51.140;6.290;2022-07-10T15:03:07;18.58;;;17.52;;